Time;durP1;ratioP1;P1;durP2;ratioP2;P2;SDS_P1;SDS_P2;PMS_P1;PMS_P2;Temp;Humidity;BMP_temperature;BMP_pressure;BME280_temperature;BME280_humidity;BME280_pressure;Samples;Min_cycle;Max_cycle;Signal;HPM_P1;HPM_P2
2023/05/22 00:01:48;;;;;;;2.30;0.70;;;27.00;43.00;;;;;;4078608;28;20044;-48
2023/05/22 00:04:12;;;;;;;1.92;0.65;;;27.20;42.60;;;;;;4081803;28;20038;-54
2023/05/22 00:06:34;;;;;;;3.13;1.08;;;27.10;41.50;;;;;;4079076;29;20443;-44
2023/05/22 00:08:56;;;;;;;2.28;0.95;;;27.10;41.20;;;;;;4076937;29;20040;-48
2023/05/22 00:11:19;;;;;;;1.40;0.90;;;27.00;41.30;;;;;;4084522;28;20043;-50
2023/05/22 00:13:42;;;;;;;3.57;1.20;;;27.10;41.20;;;;;;4077341;28;20051;-49
2023/05/22 00:16:05;;;;;;;14.18;1.05;;;27.20;41.20;;;;;;4060680;28;20538;-45
2023/05/22 00:18:27;;;;;;;1.17;0.80;;;27.00;41.00;;;;;;4077507;28;20048;-43
2023/05/22 00:20:50;;;;;;;2.40;0.93;;;26.50;41.20;;;;;;4080162;28;20126;-47
2023/05/22 00:23:13;;;;;;;1.65;0.68;;;26.10;41.40;;;;;;4080127;28;20040;-50
2023/05/22 00:25:36;;;;;;;2.70;0.70;;;25.70;42.50;;;;;;4074638;29;20540;-46
2023/05/22 00:27:58;;;;;;;3.30;0.88;;;25.30;42.30;;;;;;4077418;29;20101;-45
2023/05/22 00:30:21;;;;;;;4.90;1.05;;;25.00;43.20;;;;;;4078502;29;20044;-48
2023/05/22 00:32:43;;;;;;;5.05;1.25;;;24.80;43.10;;;;;;4077414;28;20050;-51
2023/05/22 00:35:06;;;;;;;0.75;0.50;;;24.60;43.90;;;;;;4081432;28;20039;-46
2023/05/22 00:37:29;;;;;;;1.23;0.70;;;24.40;44.30;;;;;;4079006;29;20059;-48
2023/05/22 00:39:51;;;;;;;1.13;0.70;;;24.10;45.00;;;;;;4076271;29;20759;-48
2023/05/22 00:42:14;;;;;;;0.90;0.65;;;24.00;45.30;;;;;;4073355;29;20076;-44
2023/05/22 00:44:37;;;;;;;1.45;0.60;;;23.90;45.60;;;;;;4081300;28;20036;-47
2023/05/22 00:46:59;;;;;;;0.60;0.57;;;23.70;46.00;;;;;;4077613;28;20040;-46
2023/05/22 00:49:22;;;;;;;1.70;0.77;;;23.60;46.20;;;;;;4084352;28;20075;-46
2023/05/22 00:51:44;;;;;;;1.33;0.60;;;23.40;46.60;;;;;;4075992;28;20107;-50
2023/05/22 00:54:07;;;;;;;0.75;0.60;;;23.30;46.80;;;;;;4082061;28;20481;-51
2023/05/22 00:56:30;;;;;;;1.55;0.70;;;23.20;46.80;;;;;;4076160;28;20515;-48
2023/05/22 00:58:52;;;;;;;2.15;0.73;;;23.10;47.20;;;;;;4078187;29;20039;-49
2023/05/22 01:01:16;;;;;;;2.67;0.55;;;23.00;47.60;;;;;;4073543;29;20071;-51
2023/05/22 01:03:46;;;;;;;1.75;0.50;;;22.90;47.80;;;;;;4076292;28;20051;-50
2023/05/22 01:06:08;;;;;;;0.43;0.43;;;22.70;47.60;;;;;;4081417;29;20262;-51
2023/05/22 01:08:31;;;;;;;1.33;0.65;;;22.60;48.00;;;;;;4079372;28;20042;-53
2023/05/22 01:11:16;;;;;;;2.40;0.88;;;22.50;47.90;;;;;;4082084;29;20043;-45
2023/05/22 01:14:02;;;;;;;1.15;0.50;;;22.40;48.00;;;;;;4081199;29;20032;-51
2023/05/22 01:16:45;;;;;;;1.67;0.60;;;22.30;48.80;;;;;;4085453;29;20161;-50
2023/05/22 01:19:46;;;;;;;1.60;0.80;;;22.30;48.80;;;;;;4079310;29;20040;-45
2023/05/22 01:22:39;;;;;;;0.82;0.63;;;22.20;48.70;;;;;;4085245;28;20527;-45
2023/05/22 01:25:29;;;;;;;2.03;0.68;;;22.10;48.80;;;;;;4070025;29;20094;-54
2023/05/22 01:28:05;;;;;;;1.80;0.70;;;21.90;49.20;;;;;;4081535;28;20047;-52
2023/05/22 01:31:06;;;;;;;1.02;0.70;;;21.80;49.30;;;;;;4079010;28;20077;-52
2023/05/22 01:33:38;;;;;;;1.05;0.60;;;21.80;49.60;;;;;;4085268;28;20118;-50
2023/05/22 01:36:01;;;;;;;1.15;0.60;;;21.70;49.60;;;;;;4062661;29;20051;-47
2023/05/22 01:38:25;;;;;;;0.52;0.52;;;21.60;49.60;;;;;;4088082;28;20039;-50
2023/05/22 01:40:48;;;;;;;1.08;0.45;;;21.50;49.70;;;;;;4079319;28;20404;-50
2023/05/22 01:43:11;;;;;;;0.90;0.45;;;21.50;50.10;;;;;;4081260;28;20039;-50
2023/05/22 01:45:34;;;;;;;1.45;0.65;;;21.40;50.10;;;;;;4083998;28;20074;-48
2023/05/22 01:47:58;;;;;;;2.10;0.68;;;21.40;50.60;;;;;;4074821;29;20040;-51
2023/05/22 01:50:20;;;;;;;1.23;0.63;;;21.30;50.60;;;;;;4079809;28;20175;-51
2023/05/22 01:52:57;;;;;;;1.58;0.45;;;21.20;50.70;;;;;;4081165;29;20063;-49
2023/05/22 01:55:33;;;;;;;2.83;0.70;;;21.20;50.90;;;;;;4081564;28;20106;-51
2023/05/22 01:58:02;;;;;;;1.60;0.60;;;21.10;50.60;;;;;;4081416;28;20419;-50
2023/05/22 02:00:26;;;;;;;1.13;0.55;;;21.10;51.20;;;;;;4070309;28;20527;-51
2023/05/22 02:02:56;;;;;;;0.70;0.50;;;21.00;51.20;;;;;;4092605;28;20046;-51
2023/05/22 02:05:20;;;;;;;0.93;0.70;;;21.00;51.20;;;;;;4080062;29;20039;-51
2023/05/22 02:07:42;;;;;;;0.93;0.57;;;21.00;51.30;;;;;;4083820;28;20054;-45
2023/05/22 02:10:07;;;;;;;0.85;0.50;;;20.90;51.60;;;;;;4074695;28;20116;-49
2023/05/22 02:12:30;;;;;;;1.85;0.50;;;20.90;51.50;;;;;;4077352;29;20046;-50
2023/05/22 02:14:52;;;;;;;0.80;0.50;;;20.80;52.30;;;;;;4077503;29;20036;-51
2023/05/22 02:17:16;;;;;;;2.35;0.60;;;20.80;51.90;;;;;;4090729;28;20535;-54
2023/05/22 02:19:39;;;;;;;1.75;0.47;;;20.70;51.70;;;;;;4074376;28;20043;-48
2023/05/22 02:22:02;;;;;;;2.47;0.73;;;20.70;52.30;;;;;;4078755;29;20035;-49
2023/05/22 02:24:24;;;;;;;2.10;0.55;;;20.70;52.30;;;;;;4075410;28;20066;-50
2023/05/22 02:26:47;;;;;;;1.17;0.60;;;20.70;52.50;;;;;;4080133;28;20504;-53
2023/05/22 02:29:09;;;;;;;1.55;0.65;;;20.60;52.60;;;;;;4079899;29;20126;-51
2023/05/22 02:31:32;;;;;;;0.73;0.40;;;20.60;52.70;;;;;;4076433;29;20047;-47
2023/05/22 02:33:55;;;;;;;0.88;0.63;;;20.60;52.70;;;;;;4078052;29;20039;-47
2023/05/22 02:36:17;;;;;;;1.80;0.85;;;20.60;52.60;;;;;;4075245;29;20054;-46
2023/05/22 02:38:40;;;;;;;3.33;0.90;;;20.50;52.90;;;;;;4074395;28;20416;-50
2023/05/22 02:41:02;;;;;;;2.10;1.13;;;20.50;52.60;;;;;;4080724;28;20087;-51
2023/05/22 02:43:25;;;;;;;2.42;1.27;;;20.50;53.10;;;;;;4082100;28;20035;-47
2023/05/22 02:45:47;;;;;;;2.22;1.35;;;20.40;52.10;;;;;;4077283;28;20492;-48
2023/05/22 02:48:10;;;;;;;3.00;1.27;;;20.30;51.50;;;;;;4079305;29;20437;-51
2023/05/22 02:50:32;;;;;;;2.15;1.40;;;20.20;51.80;;;;;;4074788;29;20047;-46
2023/05/22 02:52:54;;;;;;;2.00;1.08;;;20.20;52.30;;;;;;4075852;29;20042;-44
2023/05/22 02:55:17;;;;;;;2.65;0.95;;;20.20;52.40;;;;;;4074447;29;20031;-47
2023/05/22 02:57:39;;;;;;;1.58;1.10;;;20.20;52.70;;;;;;4078342;29;20052;-44
2023/05/22 03:00:02;;;;;;;1.25;0.90;;;20.20;52.90;;;;;;4084023;28;20047;-45
2023/05/22 03:02:28;;;;;;;2.57;1.00;;;20.20;52.90;;;;;;4078089;29;20053;-48
2023/05/22 03:04:51;;;;;;;1.73;0.98;;;20.20;53.00;;;;;;4077199;29;20113;-49
2023/05/22 03:07:13;;;;;;;1.25;0.75;;;20.20;53.20;;;;;;4086072;28;20035;-44
2023/05/22 03:09:36;;;;;;;2.45;0.90;;;20.20;53.20;;;;;;4076916;29;20043;-46
2023/05/22 03:11:58;;;;;;;1.20;0.50;;;20.20;53.30;;;;;;4074230;29;20036;-52
2023/05/22 03:14:20;;;;;;;2.90;1.33;;;20.20;53.40;;;;;;4087513;28;20055;-49
2023/05/22 03:16:43;;;;;;;1.67;1.05;;;20.20;52.60;;;;;;4083547;29;20039;-49
2023/05/22 03:19:10;;;;;;;1.60;1.20;;;20.10;52.30;;;;;;4074092;29;20035;-51
2023/05/22 03:21:32;;;;;;;3.38;1.40;;;20.00;52.30;;;;;;4084011;28;20042;-49
2023/05/22 03:23:55;;;;;;;1.50;0.90;;;20.00;52.10;;;;;;4082387;29;20469;-49
2023/05/22 03:26:17;;;;;;;2.40;1.00;;;20.00;52.30;;;;;;4076547;29;20114;-48
2023/05/22 03:28:40;;;;;;;2.80;0.90;;;20.00;52.50;;;;;;4079710;29;20098;-53
2023/05/22 03:31:02;;;;;;;2.65;0.95;;;20.10;52.60;;;;;;4084383;28;20042;-52
2023/05/22 03:33:24;;;;;;;1.48;0.85;;;20.10;52.90;;;;;;4076423;29;20416;-51
2023/05/22 03:35:47;;;;;;;1.50;0.88;;;20.10;53.00;;;;;;4081569;28;20051;-48
2023/05/22 03:38:10;;;;;;;1.90;0.70;;;20.20;53.00;;;;;;4068571;28;20047;-51
2023/05/22 03:40:32;;;;;;;2.03;0.73;;;20.20;53.10;;;;;;4072711;29;20040;-45
2023/05/22 03:42:54;;;;;;;7.82;1.80;;;20.20;53.20;;;;;;4074240;29;20082;-51
2023/05/22 03:45:17;;;;;;;1.50;0.80;;;20.30;53.20;;;;;;4081409;29;20059;-50
2023/05/22 03:47:40;;;;;;;2.08;0.80;;;20.30;53.30;;;;;;4076968;28;20090;-51
2023/05/22 03:50:02;;;;;;;1.15;0.65;;;20.30;53.20;;;;;;4081197;29;20035;-49
2023/05/22 03:52:25;;;;;;;1.45;0.50;;;20.40;53.20;;;;;;4077362;29;20047;-49
2023/05/22 03:54:48;;;;;;;1.48;0.93;;;20.40;53.30;;;;;;4072259;29;20221;-50
2023/05/22 03:57:10;;;;;;;1.55;0.50;;;20.40;53.20;;;;;;4077674;29;20040;-47
2023/05/22 03:59:34;;;;;;;0.82;0.50;;;20.50;53.20;;;;;;4069407;29;20114;-47
2023/05/22 04:01:59;;;;;;;1.88;0.90;;;20.60;53.20;;;;;;4078855;28;20039;-51
2023/05/22 04:04:25;;;;;;;0.88;0.60;;;20.60;53.10;;;;;;4084540;28;20071;-49
2023/05/22 04:06:48;;;;;;;0.98;0.63;;;20.60;53.20;;;;;;4084755;28;20048;-45
2023/05/22 04:09:11;;;;;;;0.63;0.60;;;20.70;53.10;;;;;;4078885;29;20098;-51
2023/05/22 04:11:34;;;;;;;0.80;0.50;;;20.70;53.00;;;;;;4069371;29;20059;-48
2023/05/22 04:14:02;;;;;;;1.42;0.63;;;20.80;52.90;;;;;;4078659;29;20041;-50
2023/05/22 04:16:24;;;;;;;1.20;0.50;;;20.90;52.90;;;;;;4071249;29;20062;-48
2023/05/22 04:18:46;;;;;;;0.55;0.45;;;20.90;52.80;;;;;;4078684;29;20063;-50
2023/05/22 04:21:09;;;;;;;2.13;0.60;;;21.00;52.80;;;;;;4079558;28;20480;-50
2023/05/22 04:23:31;;;;;;;1.10;0.60;;;21.00;52.80;;;;;;4073381;28;20059;-44
2023/05/22 04:25:54;;;;;;;1.02;0.40;;;21.10;52.90;;;;;;4077453;29;20067;-44
2023/05/22 04:28:16;;;;;;;1.70;0.45;;;21.20;52.70;;;;;;4075717;29;20074;-46
2023/05/22 04:30:39;;;;;;;1.58;0.90;;;21.20;52.30;;;;;;4080474;28;20047;-45
2023/05/22 04:33:04;;;;;;;2.00;0.90;;;21.20;51.20;;;;;;4071296;29;20516;-44
2023/05/22 04:35:28;;;;;;;1.45;0.73;;;21.20;50.90;;;;;;4077118;28;20070;-40
2023/05/22 04:37:50;;;;;;;;;;;21.20;51.20;;;;;;4078134;28;20047;-49
2023/05/22 04:40:14;;;;;;;1.23;0.70;;;21.20;51.40;;;;;;4076297;28;20294;-42
2023/05/22 04:42:37;;;;;;;2.53;0.77;;;21.20;51.50;;;;;;4085643;28;20408;-44
2023/05/22 04:45:00;;;;;;;1.00;0.67;;;21.20;51.70;;;;;;4092312;28;20126;-46
2023/05/22 04:47:22;;;;;;;2.17;0.85;;;21.20;51.80;;;;;;4077481;29;21028;-46
2023/05/22 04:49:45;;;;;;;2.65;0.70;;;21.30;51.90;;;;;;4079616;29;20122;-46
2023/05/22 04:52:10;;;;;;;2.13;0.80;;;21.30;52.20;;;;;;4079935;29;20027;-46
2023/05/22 04:54:33;;;;;;;2.95;0.65;;;21.30;52.30;;;;;;4087224;28;20047;-45
2023/05/22 04:56:55;;;;;;;0.93;0.45;;;21.30;52.50;;;;;;4091590;28;20162;-48
2023/05/22 04:59:22;;;;;;;2.05;0.68;;;21.30;52.70;;;;;;4079972;29;20036;-43
2023/05/22 05:01:45;;;;;;;2.70;1.00;;;21.30;53.00;;;;;;4083460;28;20650;-45
2023/05/22 05:04:07;;;;;;;4.95;0.82;;;21.30;52.80;;;;;;4090190;28;20122;-46
2023/05/22 05:06:29;;;;;;;1.23;0.68;;;21.30;52.80;;;;;;4088490;29;20412;-47
2023/05/22 05:08:52;;;;;;;0.95;0.70;;;21.30;52.80;;;;;;4067848;29;20036;-43
2023/05/22 05:11:15;;;;;;;0.70;0.70;;;21.40;52.80;;;;;;4081687;28;20568;-47
2023/05/22 05:13:38;;;;;;;1.35;0.70;;;21.40;52.80;;;;;;4074731;29;20035;-45
2023/05/22 05:16:00;;;;;;;2.03;1.00;;;21.40;52.80;;;;;;4083238;28;20079;-50
2023/05/22 05:18:23;;;;;;;1.98;0.77;;;21.40;53.10;;;;;;4069247;29;20499;-46
2023/05/22 05:20:45;;;;;;;1.95;0.93;;;21.40;53.10;;;;;;4081212;28;20059;-44
2023/05/22 05:23:09;;;;;;;2.15;0.93;;;21.40;53.00;;;;;;4077937;29;20094;-45
2023/05/22 05:25:31;;;;;;;2.20;0.90;;;21.40;53.00;;;;;;4082208;28;20058;-48
2023/05/22 05:27:53;;;;;;;1.52;0.73;;;21.40;53.40;;;;;;4082245;29;20460;-47
2023/05/22 05:30:17;;;;;;;2.58;0.98;;;21.40;53.80;;;;;;4082628;28;20123;-43
2023/05/22 05:32:40;;;;;;;2.35;1.10;;;21.40;53.40;;;;;;4084490;28;20060;-49
2023/05/22 05:35:02;;;;;;;1.23;0.75;;;21.40;53.50;;;;;;4084426;28;20130;-48
2023/05/22 05:37:25;;;;;;;3.50;0.93;;;21.40;53.60;;;;;;4085448;28;20055;-49
2023/05/22 05:39:47;;;;;;;3.70;1.30;;;21.40;53.50;;;;;;4077171;28;20042;-44
2023/05/22 05:42:10;;;;;;;2.88;0.70;;;21.40;53.80;;;;;;4084829;28;20081;-46
2023/05/22 05:44:32;;;;;;;1.85;0.90;;;21.40;54.00;;;;;;4087016;28;20039;-46
2023/05/22 05:46:55;;;;;;;1.77;0.85;;;21.30;54.20;;;;;;4080786;28;20515;-42
2023/05/22 05:49:19;;;;;;;2.70;0.80;;;21.40;54.10;;;;;;4079057;28;21524;-45
2023/05/22 05:51:41;;;;;;;1.48;0.90;;;21.40;54.10;;;;;;4072085;29;20503;-43
2023/05/22 05:54:04;;;;;;;2.63;0.95;;;21.30;53.80;;;;;;4080382;28;20628;-46
2023/05/22 05:56:26;;;;;;;3.95;0.90;;;21.30;54.20;;;;;;4076154;29;20051;-50
2023/05/22 05:58:49;;;;;;;2.53;0.88;;;21.30;54.30;;;;;;4083465;28;20035;-48
2023/05/22 06:01:11;;;;;;;1.75;0.80;;;21.30;54.00;;;;;;4079881;29;20066;-47
2023/05/22 06:03:34;;;;;;;1.85;1.10;;;21.30;54.10;;;;;;4082131;28;20409;-52
2023/05/22 06:05:58;;;;;;;6.03;1.42;;;21.30;54.20;;;;;;4072000;29;20091;-48
2023/05/22 06:08:20;;;;;;;4.03;1.08;;;21.30;54.50;;;;;;4075515;29;20485;-43
2023/05/22 06:10:43;;;;;;;3.75;1.80;;;21.30;54.30;;;;;;4078547;28;20027;-51
2023/05/22 06:13:05;;;;;;;3.95;1.73;;;21.30;54.70;;;;;;4076177;29;20126;-43
2023/05/22 06:15:29;;;;;;;6.85;1.40;;;21.30;54.30;;;;;;4083478;28;20082;-49
2023/05/22 06:17:52;;;;;;;5.80;1.73;;;21.30;54.50;;;;;;4077835;28;20483;-50
2023/05/22 06:20:14;;;;;;;6.53;2.20;;;21.30;54.60;;;;;;4086559;28;20775;-51
2023/05/22 06:22:36;;;;;;;5.82;1.70;;;21.30;54.50;;;;;;4077296;29;20513;-46
2023/05/22 06:27:26;;;;;;;9.90;2.33;;;21.30;54.70;;;;;;4080199;29;20058;-47
2023/05/22 06:29:49;;;;;;;7.40;2.00;;;21.30;54.60;;;;;;4076950;29;20032;-44
2023/05/22 06:32:11;;;;;;;7.32;1.73;;;21.30;54.40;;;;;;4075536;28;20082;-46
2023/05/22 06:34:34;;;;;;;10.82;2.67;;;21.20;54.30;;;;;;4075051;29;20047;-48
2023/05/22 06:36:57;;;;;;;6.03;1.85;;;21.20;54.30;;;;;;4073551;28;20058;-42
2023/05/22 06:39:20;;;;;;;7.22;2.08;;;21.20;54.30;;;;;;4075310;29;20036;-46
2023/05/22 06:41:43;;;;;;;5.20;1.80;;;21.20;54.20;;;;;;4076026;29;20133;-51
2023/05/22 06:44:05;;;;;;;5.93;1.92;;;21.20;54.10;;;;;;4074521;29;20043;-47
2023/05/22 06:46:28;;;;;;;6.03;1.90;;;21.20;54.00;;;;;;4075503;29;20043;-45
2023/05/22 06:48:53;;;;;;;10.48;3.10;;;21.10;54.00;;;;;;4079236;29;20115;-48
2023/05/22 06:51:15;;;;;;;6.03;1.88;;;21.10;54.00;;;;;;4078037;29;20039;-48
2023/05/22 06:53:38;;;;;;;6.93;2.15;;;21.10;53.90;;;;;;4078837;28;20050;-41
2023/05/22 06:56:01;;;;;;;7.82;2.22;;;21.10;53.90;;;;;;4081139;28;20059;-45
2023/05/22 06:58:23;;;;;;;9.45;2.03;;;21.00;53.80;;;;;;4079092;29;20519;-48
2023/05/22 07:00:45;;;;;;;5.40;2.13;;;21.00;53.90;;;;;;4078512;28;20042;-42
2023/05/22 07:03:08;;;;;;;6.65;2.10;;;21.00;53.80;;;;;;4079009;29;20043;-46
2023/05/22 07:05:30;;;;;;;4.63;2.22;;;21.00;53.20;;;;;;4080354;29;20036;-41
2023/05/22 07:07:52;;;;;;;5.35;1.70;;;21.00;53.70;;;;;;4077482;29;20511;-46
2023/05/22 07:10:15;;;;;;;4.95;2.00;;;21.00;53.70;;;;;;4074749;29;20327;-46
2023/05/22 07:12:37;;;;;;;5.10;2.03;;;20.90;53.60;;;;;;4066108;28;20052;-50
2023/05/22 07:15:00;;;;;;;7.57;1.95;;;20.90;53.70;;;;;;4082179;28;20035;-47
2023/05/22 07:17:22;;;;;;;5.32;1.80;;;20.90;53.60;;;;;;4078787;28;20055;-47
2023/05/22 07:19:45;;;;;;;3.55;1.27;;;20.90;53.50;;;;;;4081781;28;20086;-46
2023/05/22 07:22:07;;;;;;;6.57;1.67;;;20.90;53.50;;;;;;4076335;29;20040;-43
2023/05/22 07:24:30;;;;;;;5.47;1.70;;;20.90;53.50;;;;;;4080885;28;20070;-47
2023/05/22 07:26:52;;;;;;;3.45;1.52;;;20.80;53.40;;;;;;4087268;28;20057;-41
2023/05/22 07:29:15;;;;;;;4.95;1.50;;;20.80;53.40;;;;;;4084027;28;20035;-42
2023/05/22 07:31:38;;;;;;;4.68;1.52;;;20.80;53.30;;;;;;4087260;28;20107;-44
2023/05/22 07:34:00;;;;;;;3.78;1.60;;;20.80;53.30;;;;;;4059633;29;20545;-41
2023/05/22 07:36:23;;;;;;;6.10;1.40;;;20.80;53.30;;;;;;4079616;28;20302;-41
2023/05/22 07:38:45;;;;;;;3.88;1.98;;;20.80;53.30;;;;;;4077678;28;20043;-42
2023/05/22 07:41:08;;;;;;;2.67;1.40;;;20.80;53.30;;;;;;4075186;28;20051;-42
2023/05/22 07:43:30;;;;;;;9.15;1.30;;;20.70;53.30;;;;;;4076583;29;20088;-40
2023/05/22 07:45:53;;;;;;;3.85;1.45;;;20.70;53.20;;;;;;4076658;28;20075;-40
2023/05/22 07:48:15;;;;;;;4.47;1.35;;;20.70;53.00;;;;;;4085452;28;20135;-44
2023/05/22 07:50:38;;;;;;;3.08;1.13;;;20.70;53.00;;;;;;4075278;29;20044;-47
2023/05/22 07:53:00;;;;;;;3.05;1.08;;;20.70;53.00;;;;;;4077818;29;20043;-47
2023/05/22 07:55:23;;;;;;;2.50;1.10;;;20.60;53.00;;;;;;4082379;29;20046;-45
2023/05/22 07:57:46;;;;;;;2.38;0.80;;;20.60;53.00;;;;;;4072793;28;20043;-44
2023/05/22 08:00:12;;;;;;;4.30;1.25;;;20.60;53.10;;;;;;4080981;29;20063;-50
2023/05/22 08:02:35;;;;;;;2.30;1.10;;;20.50;53.10;;;;;;4083498;28;20067;-44
2023/05/22 08:04:58;;;;;;;2.45;1.00;;;20.50;53.10;;;;;;4073567;29;20044;-47
2023/05/22 08:07:20;;;;;;;1.83;1.00;;;20.50;53.20;;;;;;4082131;28;20520;-45
2023/05/22 08:09:44;;;;;;;12.23;1.48;;;20.50;53.00;;;;;;4078221;29;20049;-42
2023/05/22 08:12:07;;;;;;;5.55;1.33;;;20.50;53.30;;;;;;4089455;28;20378;-48
2023/05/22 08:14:30;;;;;;;5.82;1.98;;;20.40;53.50;;;;;;4083176;29;20500;-43
2023/05/22 08:16:53;;;;;;;6.75;1.38;;;20.50;53.80;;;;;;4089069;28;20403;-49
2023/05/22 08:19:15;;;;;;;4.53;1.50;;;20.40;54.10;;;;;;4071823;28;20086;-45
2023/05/22 08:21:38;;;;;;;5.70;1.70;;;20.40;54.20;;;;;;4085576;29;21283;-52
2023/05/22 08:24:01;;;;;;;6.13;1.67;;;20.40;54.00;;;;;;4085268;29;20095;-47
2023/05/22 08:26:23;;;;;;;8.50;1.90;;;20.40;53.60;;;;;;4084064;28;20043;-48
2023/05/22 08:28:46;;;;;;;4.28;1.58;;;20.40;53.80;;;;;;4082485;28;20035;-44
2023/05/22 08:31:09;;;;;;;4.78;1.45;;;20.40;53.90;;;;;;4084646;29;20436;-46
2023/05/22 08:33:32;;;;;;;4.50;1.15;;;20.40;54.00;;;;;;4086037;28;20043;-45
2023/05/22 08:35:54;;;;;;;6.25;1.90;;;20.40;54.20;;;;;;4083739;28;20050;-48
2023/05/22 08:38:17;;;;;;;8.57;1.50;;;20.40;54.40;;;;;;4081632;28;20518;-50
2023/05/22 08:40:39;;;;;;;3.20;1.20;;;20.30;54.40;;;;;;4086633;29;20620;-51
2023/05/22 08:43:02;;;;;;;5.05;1.70;;;20.30;54.40;;;;;;4083164;29;20044;-43
2023/05/22 08:45:25;;;;;;;4.50;2.00;;;20.30;53.80;;;;;;4086056;28;20122;-49
2023/05/22 08:47:54;;;;;;;4.63;1.95;;;20.30;53.50;;;;;;4083672;29;20059;-50
2023/05/22 08:50:17;;;;;;;5.55;2.08;;;20.20;53.40;;;;;;4082413;28;20055;-47
2023/05/22 08:52:51;;;;;;;4.43;2.00;;;20.20;53.40;;;;;;4082414;28;20035;-50
2023/05/22 08:55:13;;;;;;;5.35;2.20;;;20.10;53.30;;;;;;4090529;29;20095;-52
2023/05/22 08:57:36;;;;;;;4.22;2.00;;;20.10;53.50;;;;;;4083137;29;20091;-48
2023/05/22 08:59:59;;;;;;;8.25;3.08;;;20.00;53.40;;;;;;4083351;29;20059;-49
2023/05/22 09:02:22;;;;;;;4.55;2.67;;;20.00;53.20;;;;;;4082669;29;20508;-49
2023/05/22 09:04:45;;;;;;;5.25;1.95;;;19.90;53.50;;;;;;4085438;29;20038;-46
2023/05/22 09:07:08;;;;;;;4.85;2.47;;;19.90;53.60;;;;;;4086199;29;20042;-48
2023/05/22 09:09:31;;;;;;;6.38;2.15;;;19.90;53.60;;;;;;4081400;28;20032;-44
2023/05/22 09:11:54;;;;;;;4.13;2.45;;;19.80;53.70;;;;;;4078966;29;20043;-46
2023/05/22 09:14:18;;;;;;;3.97;2.23;;;19.80;53.70;;;;;;4077986;29;20038;-45
2023/05/22 09:16:48;;;;;;;6.10;2.33;;;19.70;53.80;;;;;;4091015;28;20051;-43
2023/05/22 09:19:13;;;;;;;4.38;2.58;;;19.70;53.70;;;;;;4087503;28;20055;-49
2023/05/22 09:21:36;;;;;;;;;;;19.60;53.90;;;;;;4091500;28;20039;-48
2023/05/22 09:24:01;;;;;;;3.67;2.17;;;19.60;54.10;;;;;;4084620;29;20382;-48
2023/05/22 09:26:28;;;;;;;3.63;2.22;;;19.60;53.80;;;;;;4077728;29;20040;-47
2023/05/22 09:28:50;;;;;;;4.47;2.53;;;19.60;53.90;;;;;;4083935;28;20039;-49
2023/05/22 09:31:13;;;;;;;4.47;2.45;;;19.50;53.90;;;;;;4077510;28;20062;-49
2023/05/22 09:33:36;;;;;;;5.25;2.42;;;19.50;54.20;;;;;;4079283;28;20040;-51
2023/05/22 09:36:00;;;;;;;4.68;2.63;;;19.50;54.20;;;;;;4073029;29;20535;-49
2023/05/22 09:38:27;;;;;;;4.35;2.60;;;19.40;54.10;;;;;;4073193;29;20433;-51
2023/05/22 09:40:53;;;;;;;4.03;2.25;;;19.40;54.20;;;;;;4078243;29;20047;-52
2023/05/22 09:43:18;;;;;;;4.60;2.67;;;19.40;54.30;;;;;;4084551;28;20062;-51
2023/05/22 09:45:41;;;;;;;4.03;2.33;;;19.40;54.70;;;;;;4080296;29;20083;-52
2023/05/22 09:48:07;;;;;;;5.25;2.60;;;19.40;54.70;;;;;;4080274;29;20622;-49
2023/05/22 09:50:30;;;;;;;4.85;2.53;;;19.40;54.70;;;;;;4079070;29;20448;-51
2023/05/22 09:52:53;;;;;;;5.10;2.40;;;19.30;54.70;;;;;;4075284;29;20040;-47
2023/05/22 09:55:17;;;;;;;5.15;2.65;;;19.30;54.20;;;;;;4086331;28;20051;-50
2023/05/22 09:57:43;;;;;;;;;;;19.30;54.80;;;;;;4072916;29;20039;-52
2023/05/22 10:00:09;;;;;;;4.35;2.40;;;19.20;54.90;;;;;;4074060;28;20081;-51
2023/05/22 10:02:32;;;;;;;7.05;2.90;;;19.20;54.90;;;;;;4080598;28;20098;-49
2023/05/22 10:04:55;;;;;;;5.97;2.83;;;19.20;54.60;;;;;;4080608;29;20041;-49
2023/05/22 10:07:42;;;;;;;4.47;2.60;;;19.20;54.90;;;;;;4079696;29;20044;-52
2023/05/22 10:10:08;;;;;;;6.85;2.45;;;19.10;54.90;;;;;;4083595;28;20138;-52
2023/05/22 10:12:36;;;;;;;3.10;2.20;;;19.10;54.80;;;;;;4082527;28;20481;-48
2023/05/22 10:15:01;;;;;;;4.70;2.72;;;19.10;54.70;;;;;;4085717;28;20079;-46
2023/05/22 10:17:25;;;;;;;5.15;2.45;;;19.10;54.80;;;;;;4073636;29;20087;-52
2023/05/22 10:19:48;;;;;;;4.43;2.30;;;19.10;54.80;;;;;;4080633;28;20067;-50
2023/05/22 10:22:19;;;;;;;4.57;2.40;;;19.00;55.00;;;;;;4078179;29;20050;-49
2023/05/22 10:24:42;;;;;;;6.32;2.72;;;19.00;54.90;;;;;;4084155;28;20512;-48
2023/05/22 10:27:04;;;;;;;4.72;2.67;;;19.00;55.00;;;;;;4079420;28;20492;-45
2023/05/22 10:29:52;;;;;;;3.78;2.38;;;19.00;55.40;;;;;;4080241;28;20043;-46
2023/05/22 10:32:33;;;;;;;5.18;2.42;;;19.00;56.20;;;;;;4079187;28;20031;-48
2023/05/22 10:35:21;;;;;;;5.53;2.45;;;19.00;55.70;;;;;;4081902;28;20042;-43
2023/05/22 10:38:01;;;;;;;7.28;2.35;;;19.00;55.90;;;;;;4082178;28;20062;-44
2023/05/22 10:40:32;;;;;;;8.45;2.85;;;19.00;55.80;;;;;;4070985;28;20411;-54
2023/05/22 10:43:02;;;;;;;4.15;2.20;;;19.00;56.20;;;;;;4075465;29;20732;-48
2023/05/22 10:45:30;;;;;;;3.55;2.10;;;19.10;56.30;;;;;;4080324;29;20031;-44
2023/05/22 10:48:06;;;;;;;3.80;1.45;;;19.10;56.50;;;;;;4076486;29;20078;-47
2023/05/22 10:50:28;;;;;;;3.95;1.80;;;19.10;56.50;;;;;;4078359;28;20488;-45
2023/05/22 10:53:22;;;;;;;6.32;1.90;;;19.10;56.60;;;;;;4080833;28;20035;-44
2023/05/22 10:55:48;;;;;;;2.88;1.30;;;19.10;56.70;;;;;;4084156;29;20035;-45
2023/05/22 10:58:14;;;;;;;3.28;1.92;;;19.10;56.70;;;;;;4082989;28;20054;-48
2023/05/22 11:00:37;;;;;;;1.65;1.17;;;19.10;56.80;;;;;;4081086;28;20040;-46
2023/05/22 11:03:05;;;;;;;6.40;1.90;;;19.10;56.80;;;;;;4079142;29;20038;-46
2023/05/22 11:05:27;;;;;;;3.20;1.17;;;19.10;56.90;;;;;;4076297;29;20268;-48
2023/05/22 11:07:49;;;;;;;4.15;1.20;;;19.20;56.90;;;;;;4079435;29;20043;-51
2023/05/22 11:10:12;;;;;;;2.53;1.05;;;19.20;57.00;;;;;;4078195;29;20074;-45
2023/05/22 11:12:36;;;;;;;4.07;1.30;;;19.20;56.90;;;;;;4076648;29;20563;-47
2023/05/22 11:15:09;;;;;;;4.00;1.45;;;19.20;56.90;;;;;;4074607;29;20126;-48
2023/05/22 11:17:48;;;;;;;3.13;1.48;;;19.30;57.00;;;;;;4079860;28;20059;-46
2023/05/22 11:20:24;;;;;;;3.17;1.50;;;19.30;56.90;;;;;;4082819;28;20154;-46
2023/05/22 11:23:01;;;;;;;3.95;1.65;;;19.30;56.90;;;;;;4079250;28;20095;-38
2023/05/22 11:25:25;;;;;;;3.60;1.52;;;19.30;57.00;;;;;;4078080;29;20404;-48
2023/05/22 11:27:47;;;;;;;;;;;19.30;57.00;;;;;;4070845;29;20050;-51
2023/05/22 11:30:11;;;;;;;2.50;1.20;;;19.30;57.00;;;;;;4083423;28;20387;-45
2023/05/22 11:32:38;;;;;;;2.25;1.38;;;19.30;57.00;;;;;;4078682;28;20122;-45
2023/05/22 11:35:02;;;;;;;2.38;1.38;;;19.30;56.90;;;;;;4078526;29;20467;-45
2023/05/22 11:37:24;;;;;;;;;;;19.30;56.90;;;;;;4064361;29;20047;-45
2023/05/22 11:39:54;;;;;;;2.03;1.40;;;19.30;56.80;;;;;;4078441;28;19919;-45
2023/05/22 11:42:18;;;;;;;2.42;1.50;;;19.40;56.90;;;;;;4071787;28;20111;-41
2023/05/22 11:44:40;;;;;;;;;;;19.40;56.90;;;;;;4082230;28;20054;-43
2023/05/22 11:47:03;;;;;;;2.20;1.33;;;19.40;56.90;;;;;;4078914;28;19911;-44
2023/05/22 11:49:26;;;;;;;2.63;1.52;;;19.40;56.90;;;;;;4077284;28;20091;-43
2023/05/22 11:51:49;;;;;;;2.60;1.90;;;19.40;56.90;;;;;;4070518;29;20040;-42
2023/05/22 11:54:11;;;;;;;2.85;1.45;;;19.40;56.90;;;;;;4074092;29;20467;-49
2023/05/22 11:56:34;;;;;;;3.92;1.25;;;19.40;56.90;;;;;;4077076;29;20172;-46
2023/05/22 11:58:56;;;;;;;4.38;1.70;;;19.40;57.00;;;;;;4076402;28;20423;-42
2023/05/22 12:01:19;;;;;;;2.45;1.40;;;19.40;56.90;;;;;;4075297;29;20044;-42
2023/05/22 12:03:41;;;;;;;2.53;1.60;;;19.40;57.00;;;;;;4070213;29;20047;-49
2023/05/22 12:06:05;;;;;;;3.22;1.75;;;19.40;56.90;;;;;;4077030;29;20036;-44
2023/05/22 12:08:28;;;;;;;2.53;1.40;;;19.40;56.90;;;;;;4077981;28;20805;-48
2023/05/22 12:10:51;;;;;;;2.40;1.52;;;19.40;57.00;;;;;;4076752;29;20039;-45
2023/05/22 12:13:14;;;;;;;2.10;1.40;;;19.40;57.00;;;;;;4080406;28;20047;-49
2023/05/22 12:15:36;;;;;;;12.52;2.67;;;19.40;57.00;;;;;;4078984;29;20036;-41
2023/05/22 12:17:58;;;;;;;6.00;3.83;;;19.40;56.90;;;;;;4078431;29;20500;-41
2023/05/22 12:20:21;;;;;;;6.55;4.45;;;19.40;54.70;;;;;;4080565;29;20466;-42
2023/05/22 12:22:44;;;;;;;7.13;4.07;;;19.40;54.30;;;;;;4074284;28;20488;-45
2023/05/22 12:25:19;;;;;;;6.13;4.15;;;19.30;53.70;;;;;;4070277;29;20048;-43
2023/05/22 12:27:44;;;;;;;6.05;4.25;;;19.30;54.00;;;;;;4079236;28;20054;-42
2023/05/22 12:30:11;;;;;;;6.40;4.40;;;19.20;53.90;;;;;;4078392;28;20035;-45
2023/05/22 12:32:33;;;;;;;9.75;4.40;;;19.10;54.00;;;;;;4076492;28;20161;-45
2023/05/22 12:34:58;;;;;;;10.60;4.13;;;19.10;54.70;;;;;;4079566;29;20039;-45
2023/05/22 12:37:24;;;;;;;9.70;3.88;;;19.10;54.90;;;;;;4076638;29;20114;-47